createdAt,value
2019-02-04T00:00:39.452Z,5.95
2019-02-04T00:03:20.025Z,5.53
2019-02-04T00:06:06.554Z,6.67
2019-02-04T00:08:52.784Z,5.05
2019-02-04T00:14:09.654Z,5.53
2019-02-04T00:16:41.009Z,4.75
2019-02-04T00:22:04.086Z,3.20
2019-02-04T00:24:43.710Z,5.92
2019-02-04T00:27:10.225Z,6.80
2019-02-04T00:29:56.486Z,4.80
2019-02-04T00:32:36.773Z,7.28
2019-02-04T00:35:23.136Z,5.92
2019-02-04T00:37:49.560Z,6.08
2019-02-04T00:40:18.835Z,5.22
2019-02-04T00:42:45.775Z,6.75
2019-02-04T00:45:32.045Z,6.85
2019-02-04T00:48:12.123Z,4.37
2019-02-04T00:50:38.738Z,6.00
2019-02-04T00:53:05.542Z,8.23
2019-02-04T00:55:51.782Z,7.25
2019-02-04T00:58:18.287Z,5.28
2019-02-04T01:01:04.644Z,9.10
2019-02-04T01:03:50.897Z,6.33
2019-02-04T01:06:31.905Z,5.72
2019-02-04T01:09:18.152Z,6.00
2019-02-04T01:11:44.671Z,7.92
2019-02-04T01:14:11.291Z,4.75
2019-02-04T01:17:03.589Z,6.12
2019-02-04T01:20:00.215Z,4.10
2019-02-04T01:22:39.753Z,6.00
2019-02-04T01:25:19.899Z,5.85
2019-02-04T01:28:06.165Z,6.28
2019-02-04T01:30:45.883Z,4.97
2019-02-04T01:33:32.191Z,7.80
2019-02-04T01:36:12.165Z,5.20
2019-02-04T01:38:58.419Z,7.70
2019-02-04T01:41:38.080Z,7.22
2019-02-04T01:44:24.349Z,8.93
2019-02-04T01:47:14.126Z,7.85
2019-02-04T01:49:32.593Z,6.05
2019-02-04T01:52:18.874Z,7.78
2019-02-04T01:58:25.735Z,4.95
2019-02-04T02:01:12.093Z,6.17
2019-02-04T02:03:38.739Z,5.12
2019-02-04T02:06:05.349Z,7.83
2019-02-04T02:08:31.817Z,4.65
2019-02-04T02:11:18.165Z,5.22
2019-02-04T02:14:04.516Z,7.45
2019-02-04T02:16:50.754Z,4.17
2019-02-04T02:19:17.262Z,6.10
2019-02-04T02:21:43.814Z,4.30
2019-02-04T02:24:10.318Z,5.33
2019-02-04T02:26:56.557Z,3.95
2019-02-04T02:29:23.039Z,4.65
2019-02-04T02:31:49.624Z,4.62
2019-02-04T02:34:35.990Z,8.05
2019-02-04T02:37:22.249Z,5.75
2019-02-04T02:40:04.074Z,4.60
2019-02-04T02:42:30.560Z,4.65
2019-02-04T02:44:57.146Z,29.55
2019-02-04T02:47:23.651Z,4.45
2019-02-04T02:49:51.967Z,5.45
2019-02-04T02:52:38.327Z,4.45
2019-02-04T02:55:24.589Z,5.62
2019-02-04T02:57:51.498Z,4.22
2019-02-04T03:00:37.795Z,4.92
2019-02-04T03:03:04.307Z,5.90
2019-02-04T03:05:50.703Z,6.55
2019-02-04T03:08:31.108Z,6.70
2019-02-04T03:11:17.459Z,4.17
2019-02-04T03:13:57.061Z,6.33
2019-02-04T03:16:23.480Z,3.35
2019-02-04T03:18:49.852Z,4.87
2019-02-04T03:21:36.228Z,5.58
2019-02-04T03:24:02.979Z,4.03
2019-02-04T03:26:51.044Z,5.08
2019-02-04T03:29:30.667Z,5.10
2019-02-04T03:32:17.021Z,4.87
2019-02-04T03:34:56.586Z,6.25
2019-02-04T03:37:42.974Z,6.70
2019-02-04T03:43:20.949Z,4.70
2019-02-04T03:46:02.790Z,3.83
2019-02-04T03:48:29.466Z,7.28
2019-02-04T03:51:15.857Z,4.87
2019-02-04T03:53:42.392Z,10.40
2019-02-04T03:56:28.716Z,4.87
2019-02-04T03:59:09.119Z,5.72
2019-02-04T04:01:55.424Z,4.30
2019-02-04T04:04:42.073Z,6.45
2019-02-04T04:07:21.707Z,6.22
2019-02-04T04:10:08.906Z,7.53
2019-02-04T04:12:35.272Z,5.67
2019-02-04T04:15:21.517Z,7.37
2019-02-04T04:18:15.476Z,4.45
2019-02-04T04:20:36.193Z,3.62
2019-02-04T04:23:02.699Z,5.42
2019-02-04T04:28:29.837Z,5.00
2019-02-04T04:30:56.284Z,5.33
2019-02-04T04:33:42.535Z,5.03
2019-02-04T04:36:22.438Z,5.20
2019-02-04T04:39:08.662Z,6.37
2019-02-04T04:44:38.310Z,7.83
2019-02-04T04:47:24.448Z,6.55
2019-02-04T04:50:05.990Z,6.62
2019-02-04T04:52:52.353Z,6.05
2019-02-04T04:55:31.875Z,4.95
2019-02-04T04:58:18.203Z,4.50
2019-02-04T05:00:58.065Z,5.75
2019-02-04T05:03:44.308Z,5.22
2019-02-04T05:06:24.245Z,5.50
2019-02-04T05:09:05.429Z,6.03
2019-02-04T05:11:45.794Z,4.80
2019-02-04T05:14:32.334Z,5.87
2019-02-04T05:16:59.079Z,4.05
2019-02-04T05:19:25.648Z,8.50
2019-02-04T05:22:11.926Z,7.55
2019-02-04T05:24:58.271Z,7.10
2019-02-04T05:27:37.812Z,4.05
2019-02-04T05:30:24.506Z,9.10
2019-02-04T05:33:04.871Z,4.78
2019-02-04T05:35:51.282Z,6.83
2019-02-04T05:38:17.671Z,5.87
2019-02-04T05:40:44.434Z,5.55
2019-02-04T05:43:30.764Z,5.70
2019-02-04T05:48:56.288Z,5.20
2019-02-04T05:51:42.596Z,5.40
2019-02-04T05:54:22.711Z,7.97
2019-02-04T05:56:49.141Z,7.28
2019-02-04T05:59:35.517Z,7.00
2019-02-04T06:02:21.865Z,4.70
2019-02-04T06:04:48.277Z,5.95
2019-02-04T06:07:34.530Z,4.90
2019-02-04T06:10:20.845Z,5.00
2019-02-04T06:13:00.796Z,6.92
2019-02-04T06:15:47.046Z,11.50
2019-02-04T06:18:13.683Z,6.80
2019-02-04T06:20:59.921Z,7.75
2019-02-04T06:23:46.185Z,5.50
2019-02-04T06:26:12.735Z,10.05
2019-02-04T06:32:20.794Z,9.58
2019-02-04T06:35:00.596Z,6.58
2019-02-04T06:37:47.289Z,9.65
2019-02-04T06:40:26.881Z,11.63
2019-02-04T06:42:53.820Z,11.40
2019-02-04T06:45:40.138Z,9.25
2019-02-04T06:48:06.940Z,8.13
2019-02-04T06:50:53.255Z,9.43
2019-02-04T06:53:19.979Z,6.62
2019-02-04T06:56:06.219Z,6.97
2019-02-04T06:58:32.984Z,7.10
2019-02-04T07:00:59.385Z,7.17
2019-02-04T07:03:45.613Z,6.58
2019-02-04T07:06:12.124Z,6.65
2019-02-04T07:08:38.533Z,5.95
2019-02-04T07:11:24.930Z,4.80
2019-02-04T07:13:51.647Z,6.42
2019-02-04T07:16:38.137Z,5.17
2019-02-04T07:19:24.296Z,6.08
2019-02-04T07:22:06.448Z,5.50
2019-02-04T07:24:46.213Z,8.25
2019-02-04T07:27:32.368Z,7.65
2019-02-04T07:30:13.825Z,11.05
2019-02-04T07:33:00.053Z,9.35
2019-02-04T07:35:26.543Z,7.20
2019-02-04T07:38:12.814Z,6.65
2019-02-04T07:40:53.066Z,6.72
2019-02-04T07:43:39.403Z,5.92
2019-02-04T07:46:19.497Z,5.97
2019-02-04T07:49:05.855Z,5.53
2019-02-04T07:51:45.947Z,7.62
2019-02-04T07:54:12.573Z,4.97
2019-02-04T07:56:39.167Z,8.95
2019-02-04T07:59:25.497Z,7.10
2019-02-04T08:02:05.048Z,17.02
2019-02-04T08:04:51.433Z,8.10
2019-02-04T08:07:32.174Z,7.70
2019-02-04T08:10:13.194Z,7.12
2019-02-04T08:13:01.867Z,6.85
2019-02-04T08:15:41.391Z,6.95
2019-02-04T08:18:07.996Z,5.85
2019-02-04T08:20:34.496Z,7.33
2019-02-04T08:23:01.068Z,7.67
2019-02-04T08:25:27.674Z,5.58
2019-02-04T08:28:09.669Z,6.53
2019-02-04T08:30:55.871Z,6.58
2019-02-04T08:33:35.895Z,8.43
2019-02-04T08:36:22.244Z,8.80
2019-02-04T08:38:48.859Z,5.60
2019-02-04T08:41:35.188Z,9.65
2019-02-04T08:44:02.106Z,6.20
2019-02-04T08:46:48.356Z,7.97
2019-02-04T08:49:34.740Z,8.88
2019-02-04T08:52:14.913Z,7.72
2019-02-04T08:55:01.157Z,5.53
2019-02-04T08:57:27.629Z,6.00
2019-02-04T09:00:26.708Z,8.23
2019-02-04T09:02:53.555Z,7.22
2019-02-04T09:05:40.106Z,10.65
2019-02-04T09:08:20.212Z,6.20
2019-02-04T09:11:06.559Z,7.72
2019-02-04T09:13:46.523Z,7.87
2019-02-04T09:16:32.759Z,9.85
2019-02-04T09:19:12.622Z,7.53
2019-02-04T09:21:58.787Z,10.50
2019-02-04T09:24:38.711Z,8.23
2019-02-04T09:27:24.995Z,9.08
2019-02-04T09:30:12.459Z,7.33
2019-02-04T09:32:39.116Z,8.48
2019-02-04T09:38:10.290Z,8.53
2019-02-04T09:40:56.643Z,5.53
2019-02-04T09:43:23.170Z,6.97
2019-02-04T09:45:49.805Z,9.93
2019-02-04T09:48:36.043Z,10.80
2019-02-04T09:51:22.424Z,11.25
2019-02-04T09:53:48.966Z,8.90
2019-02-04T09:56:15.593Z,7.75
2019-02-04T09:58:42.073Z,9.68
2019-02-04T10:01:28.671Z,7.85
2019-02-04T10:04:08.911Z,8.65
2019-02-04T10:06:55.516Z,7.80
2019-02-04T10:09:35.177Z,10.35
2019-02-04T10:12:01.682Z,10.53
2019-02-04T10:14:47.970Z,9.53
2019-02-04T10:17:14.686Z,9.78
2019-02-04T10:20:01.161Z,8.88
2019-02-04T10:22:47.698Z,8.37
2019-02-04T10:25:53.929Z,8.13
2019-02-04T10:28:33.671Z,9.47
2019-02-04T10:31:20.878Z,10.40
2019-02-04T10:34:01.051Z,14.93
2019-02-04T10:36:27.622Z,10.95
2019-02-04T10:38:54.568Z,14.87
2019-02-04T10:41:41.661Z,11.20
2019-02-04T10:44:08.212Z,12.30
2019-02-04T10:47:08.035Z,9.53
2019-02-04T10:49:54.428Z,11.33
2019-02-04T10:52:21.202Z,10.37
2019-02-04T10:55:07.603Z,10.80
2019-02-04T10:57:40.601Z,11.63
2019-02-04T11:03:03.119Z,10.30
2019-02-04T11:05:49.632Z,15.63
2019-02-04T11:08:29.549Z,14.70
2019-02-04T11:11:09.907Z,10.97
2019-02-04T11:13:36.567Z,12.47
2019-02-04T11:16:23.005Z,9.40
2019-02-04T11:18:49.595Z,13.07
2019-02-04T11:21:35.798Z,14.43
2019-02-04T11:24:22.197Z,11.20
2019-02-04T11:27:02.803Z,11.30
2019-02-04T11:29:49.064Z,14.43
2019-02-04T11:32:15.655Z,10.27
2019-02-04T11:35:02.432Z,12.07
2019-02-04T11:40:52.743Z,14.53
2019-02-04T11:43:39.044Z,11.03
2019-02-04T11:46:18.774Z,13.47
2019-02-04T11:49:05.131Z,14.07
2019-02-04T11:51:31.692Z,14.37
2019-02-04T11:54:17.975Z,10.47
2019-02-04T11:59:30.496Z,10.80
2019-02-04T12:02:16.739Z,12.77
2019-02-04T12:04:43.430Z,6.50
2019-02-04T12:07:29.771Z,10.20
2019-02-04T12:10:15.191Z,10.13
2019-02-04T12:13:01.615Z,8.50
2019-02-04T12:15:41.587Z,6.57
2019-02-04T12:18:27.955Z,8.67
2019-02-04T12:21:08.298Z,10.00
2019-02-04T12:23:34.834Z,8.93
2019-02-04T12:26:01.358Z,8.97
2019-02-04T12:28:47.632Z,8.43
2019-02-04T12:31:28.123Z,8.17
2019-02-04T12:34:14.595Z,12.40
2019-02-04T12:36:54.431Z,9.47
2019-02-04T12:39:40.891Z,11.70
2019-02-04T12:42:20.845Z,10.70
2019-02-04T12:45:22.444Z,11.77
2019-02-04T12:48:02.041Z,11.77
2019-02-04T12:50:48.303Z,9.73
2019-02-04T12:53:34.551Z,9.57
2019-02-04T12:56:01.209Z,9.00
2019-02-04T12:58:55.249Z,10.77
2019-02-04T13:01:15.716Z,8.10
2019-02-04T13:03:42.262Z,8.17
2019-02-04T13:06:29.737Z,8.27
2019-02-04T13:09:16.177Z,10.43
2019-02-04T13:11:42.798Z,9.93
2019-02-04T13:14:29.124Z,7.50
2019-02-04T13:16:55.595Z,6.80
2019-02-04T13:19:41.742Z,7.50
2019-02-04T13:22:21.643Z,7.57
2019-02-04T13:28:51.256Z,6.27
2019-02-04T13:31:37.487Z,6.40
2019-02-04T13:34:17.542Z,5.80
2019-02-04T13:37:04.105Z,6.07
2019-02-04T13:39:44.342Z,10.80
2019-02-04T13:42:30.571Z,7.63
2019-02-04T13:45:12.145Z,8.47
2019-02-04T13:47:58.541Z,6.47
2019-02-04T13:50:38.779Z,8.63
2019-02-04T13:53:26.933Z,8.27
2019-02-04T13:56:07.179Z,6.43
2019-02-04T13:58:53.527Z,7.73
2019-02-04T14:01:33.285Z,7.50
2019-02-04T14:04:19.636Z,9.33
2019-02-04T14:06:59.437Z,7.20
2019-02-04T14:09:45.794Z,7.90
2019-02-04T14:12:45.503Z,7.53
2019-02-04T14:15:25.845Z,6.40
2019-02-04T14:18:14.009Z,6.20
2019-02-04T14:20:40.589Z,8.33
2019-02-04T14:23:07.065Z,4.63
2019-02-04T14:25:53.494Z,7.13
2019-02-04T14:28:33.079Z,6.17
2019-02-04T14:34:33.892Z,6.77
2019-02-04T14:37:13.552Z,6.73
2019-02-04T14:39:40.373Z,9.10
2019-02-04T14:42:26.648Z,5.97
2019-02-04T14:45:27.569Z,7.83
2019-02-04T14:51:47.090Z,6.90
2019-02-04T14:54:47.064Z,7.00
2019-02-04T14:57:35.398Z,7.30
2019-02-04T15:00:36.489Z,10.90
2019-02-04T15:03:42.496Z,10.07
2019-02-04T15:06:42.760Z,8.00
2019-02-04T15:09:53.697Z,5.57
2019-02-04T15:12:38.930Z,7.30
2019-02-04T15:15:44.906Z,8.30
2019-02-04T15:18:50.909Z,11.30
2019-02-04T15:21:56.949Z,15.93
2019-02-04T15:24:56.513Z,9.80
2019-02-04T15:31:24.868Z,10.00
2019-02-04T15:34:13.066Z,9.03
2019-02-04T15:36:55.970Z,7.63
2019-02-04T15:40:02.063Z,10.97
2019-02-04T15:42:46.798Z,8.07
2019-02-04T15:45:52.961Z,11.37
2019-02-04T15:48:34.295Z,10.40
2019-02-04T15:51:42.317Z,10.87
2019-02-04T15:54:22.534Z,8.63
2019-02-04T15:57:08.853Z,22.07
2019-02-04T15:59:35.908Z,12.83
2019-02-04T16:02:22.913Z,19.27
2019-02-04T16:05:09.397Z,15.30
2019-02-04T16:07:36.249Z,11.47
2019-02-04T16:10:37.853Z,12.67
2019-02-04T16:13:17.461Z,13.27
2019-02-04T16:16:03.702Z,11.57
2019-02-04T16:18:50.069Z,13.83
2019-02-04T16:21:29.620Z,10.33
2019-02-04T16:24:15.967Z,12.17
2019-02-04T16:26:55.814Z,14.03
2019-02-04T16:29:42.207Z,12.70
2019-02-04T16:32:09.168Z,13.77
2019-02-04T16:34:55.461Z,8.80
2019-02-04T16:37:36.148Z,9.60
2019-02-04T16:40:24.845Z,10.80
2019-02-04T16:43:05.097Z,11.43
2019-02-04T16:45:51.796Z,10.20
2019-02-04T16:48:32.026Z,11.63
2019-02-04T16:51:18.288Z,12.17
2019-02-04T16:53:44.782Z,9.50
2019-02-04T16:56:31.359Z,8.50
2019-02-04T16:58:57.943Z,9.33
2019-02-04T17:01:44.277Z,12.73
2019-02-04T17:04:11.221Z,9.60
2019-02-04T17:06:37.789Z,8.90
2019-02-04T17:09:45.697Z,8.60
2019-02-04T17:12:12.340Z,10.90
2019-02-04T17:14:58.719Z,11.90
2019-02-04T17:17:44.991Z,15.50
2019-02-04T17:20:31.459Z,10.97
2019-02-04T17:23:21.708Z,9.17
2019-02-04T17:29:12.700Z,9.10
2019-02-04T17:32:00.491Z,10.47
2019-02-04T17:34:41.155Z,8.40
2019-02-04T17:37:27.416Z,8.07
2019-02-04T17:40:09.050Z,17.97
2019-02-04T17:42:55.699Z,9.93
2019-02-04T17:45:22.584Z,8.13
2019-02-04T17:48:09.829Z,8.17
2019-02-04T17:50:36.324Z,6.70
2019-02-04T17:53:33.595Z,8.00
2019-02-04T17:56:04.815Z,7.50
2019-02-04T17:58:51.093Z,8.47
2019-02-04T18:01:31.814Z,6.57
2019-02-04T18:04:18.156Z,8.73
2019-02-04T18:06:57.863Z,10.60
2019-02-04T18:09:44.135Z,8.17
2019-02-04T18:12:24.053Z,6.93
2019-02-04T18:15:11.834Z,6.23
2019-02-04T18:17:51.789Z,6.57
2019-02-04T18:20:38.069Z,6.43
2019-02-04T18:23:05.169Z,10.13
2019-02-04T18:25:51.774Z,8.43
2019-02-04T18:28:18.362Z,11.07
2019-02-04T18:31:04.789Z,6.83
2019-02-04T18:36:47.142Z,8.73
2019-02-04T18:39:33.462Z,6.83
2019-02-04T18:42:13.583Z,9.07
2019-02-04T18:45:00.195Z,6.33
2019-02-04T18:47:39.699Z,7.10
2019-02-04T18:50:26.134Z,7.63
2019-02-04T18:53:05.852Z,8.37
2019-02-04T18:55:52.181Z,9.00
2019-02-04T18:58:33.191Z,11.70
2019-02-04T19:00:59.895Z,10.13
2019-02-04T19:03:46.227Z,8.50
2019-02-04T19:06:26.270Z,6.37
2019-02-04T19:09:12.564Z,10.77
2019-02-04T19:11:39.080Z,8.43
2019-02-04T19:14:19.245Z,8.07
2019-02-04T19:17:06.030Z,7.50
2019-02-04T19:19:46.112Z,9.07
2019-02-04T19:22:32.650Z,12.33
2019-02-04T19:25:13.428Z,10.13
2019-02-04T19:27:39.892Z,7.07
2019-02-04T19:30:46.075Z,7.73
2019-02-04T19:33:12.560Z,9.50
2019-02-04T19:35:58.804Z,9.13
2019-02-04T19:38:38.631Z,10.80
2019-02-04T19:41:25.006Z,10.17
2019-02-04T19:44:05.413Z,7.07
2019-02-04T19:46:51.825Z,9.33
2019-02-04T19:49:31.483Z,6.17
2019-02-04T19:52:17.867Z,13.70
2019-02-04T19:54:57.647Z,8.70
2019-02-04T19:57:44.126Z,6.30
2019-02-04T20:00:23.811Z,5.43
2019-02-04T20:03:10.197Z,6.40
2019-02-04T20:05:36.915Z,5.03
2019-02-04T20:08:23.160Z,3.83
2019-02-04T20:10:49.854Z,4.90
2019-02-04T20:13:30.044Z,14.43
2019-02-04T20:15:56.567Z,9.77
2019-02-04T20:18:23.029Z,3.77
2019-02-04T20:21:09.395Z,9.83
2019-02-04T20:23:35.903Z,4.87
2019-02-04T20:26:22.266Z,5.07
2019-02-04T20:29:08.623Z,3.83
2019-02-04T20:31:35.324Z,3.07
2019-02-04T20:34:01.911Z,4.40
2019-02-04T20:36:48.170Z,3.43
2019-02-04T20:39:27.835Z,3.00
2019-02-04T20:42:14.375Z,3.97
2019-02-04T20:44:54.737Z,2.50
2019-02-04T20:47:41.267Z,2.90
2019-02-04T20:53:34.917Z,2.00
2019-02-04T20:56:01.452Z,2.60
2019-02-04T20:58:47.761Z,2.70
2019-02-04T21:01:14.295Z,2.07
2019-02-04T21:04:00.915Z,1.43
2019-02-04T21:09:46.357Z,1.97
2019-02-04T21:12:32.596Z,1.30
2019-02-04T21:15:13.339Z,2.37
2019-02-04T21:17:59.603Z,2.53
2019-02-04T21:20:39.762Z,1.50
2019-02-04T21:23:26.131Z,5.60
2019-02-04T21:26:07.005Z,1.33
2019-02-04T21:28:33.670Z,1.37
2019-02-04T21:31:20.177Z,1.23
2019-02-04T21:34:06.641Z,1.30
2019-02-04T21:36:46.860Z,1.30
2019-02-04T21:39:33.133Z,1.40
2019-02-04T21:42:19.483Z,2.20
2019-02-04T21:44:59.313Z,1.40
2019-02-04T21:47:25.941Z,1.30
2019-02-04T21:50:27.411Z,1.30
2019-02-04T21:52:53.906Z,1.53
2019-02-04T21:55:35.925Z,1.50
2019-02-04T21:58:02.570Z,2.20
2019-02-04T22:00:50.602Z,2.00
2019-02-04T22:03:30.248Z,1.30
2019-02-04T22:05:56.880Z,0.93
2019-02-04T22:08:23.632Z,2.73
2019-02-04T22:11:10.221Z,1.27
2019-02-04T22:13:50.343Z,2.10
2019-02-04T22:16:49.316Z,4.10
2019-02-04T22:19:05.547Z,1.50
2019-02-04T22:21:51.901Z,1.43
2019-02-04T22:24:18.847Z,1.57
2019-02-04T22:27:19.773Z,1.50
2019-02-04T22:29:34.470Z,1.87
2019-02-04T22:32:20.987Z,1.30
2019-02-04T22:44:00.776Z,4.67
2019-02-04T22:46:48.422Z,1.53
2019-02-04T22:49:28.223Z,1.47
2019-02-04T22:51:54.992Z,1.57
2019-02-04T22:54:21.618Z,2.67
2019-02-04T22:57:08.206Z,1.93
2019-02-04T22:59:35.120Z,1.50
2019-02-04T23:02:21.846Z,1.70
2019-02-04T23:05:08.424Z,1.50
2019-02-04T23:07:35.014Z,1.33
2019-02-04T23:13:16.771Z,2.63
2019-02-04T23:15:56.824Z,1.50
2019-02-04T23:18:24.141Z,2.60
2019-02-04T23:20:50.995Z,1.53
2019-02-04T23:23:37.341Z,3.73
2019-02-04T23:26:03.830Z,1.30
2019-02-04T23:31:18.802Z,3.73
2019-02-04T23:33:45.358Z,1.67
2019-02-04T23:36:31.646Z,2.17
2019-02-04T23:39:18.102Z,2.03
2019-02-04T23:41:44.571Z,2.00
2019-02-04T23:44:30.941Z,3.60
2019-02-04T23:47:11.242Z,1.70
2019-02-04T23:49:57.599Z,2.17
2019-02-04T23:52:37.089Z,2.00
2019-02-04T23:55:23.445Z,1.70
2019-02-04T23:57:50.051Z,2.67
